Time;durP1;ratioP1;P1;durP2;ratioP2;P2;SDS_P1;SDS_P2;PMS_P1;PMS_P2;Temp;Humidity;BMP_temperature;BMP_pressure;BME280_temperature;BME280_humidity;BME280_pressure;Samples;Min_cycle;Max_cycle;Signal;HPM_P1;HPM_P2
2023/03/01 00:01:22;;;;;;;;;3.50;3.50;;;;;22.26;27.34;102046.50;5073715;28;45750;-72
2023/03/01 00:03:47;;;;;;;;;5.00;4.00;;;;;22.27;27.31;102038.44;5054328;28;47169;-72
2023/03/01 00:06:13;;;;;;;;;3.25;2.50;;;;;22.25;27.09;102042.97;5060047;28;52390;-73
2023/03/01 00:08:38;;;;;;;;;4.00;4.00;;;;;22.24;27.06;102043.94;5053007;28;70371;-72
2023/03/01 00:11:18;;;;;;;;;5.00;5.00;;;;;22.27;27.27;102042.91;5073846;28;45529;-73
2023/03/01 00:13:45;;;;;;;;;4.50;4.00;;;;;22.25;27.20;102036.78;5075604;27;47029;-73
2023/03/01 00:16:17;;;;;;;;;4.00;4.00;;;;;22.27;27.18;102046.44;5070765;28;45519;-73
2023/03/01 00:18:43;;;;;;;;;4.75;4.75;;;;;22.28;27.07;102041.97;5076421;27;45342;-73
2023/03/01 00:21:09;;;;;;;;;4.75;2.50;;;;;22.28;26.98;102045.50;5063549;27;45466;-73
2023/03/01 00:23:34;;;;;;;;;8.75;4.00;;;;;22.27;26.68;102041.09;5073389;28;46057;-73
2023/03/01 00:26:00;;;;;;;;;5.50;5.50;;;;;22.30;26.89;102040.09;5069248;27;45523;-73
2023/03/01 00:28:26;;;;;;;;;7.00;5.25;;;;;22.31;27.07;102048.00;5055885;27;46896;-73
2023/03/01 00:30:51;;;;;;;;;8.00;5.00;;;;;22.29;27.04;102041.00;5070034;28;69650;-73
2023/03/01 00:33:17;;;;;;;;;5.00;4.00;;;;;22.32;26.90;102041.69;5066037;27;57571;-73
2023/03/01 00:35:42;;;;;;;;;5.50;5.00;;;;;22.31;26.62;102041.78;5069936;28;45331;-73
2023/03/01 00:38:08;;;;;;;;;4.00;4.00;;;;;22.32;27.24;102041.69;5044327;28;69367;-73
2023/03/01 00:40:34;;;;;;;;;4.00;4.00;;;;;22.33;27.11;102048.78;5059460;28;45456;-73
2023/03/01 00:43:00;;;;;;;;;4.50;4.50;;;;;22.34;26.93;102038.97;5074152;27;45489;-73
2023/03/01 00:45:26;;;;;;;;;6.00;4.50;;;;;22.34;27.28;102042.47;5073231;28;45331;-72
2023/03/01 00:47:52;;;;;;;;;5.75;5.00;;;;;22.32;26.86;102036.38;5067277;27;46351;-73
2023/03/01 00:50:18;;;;;;;;;5.25;5.25;;;;;22.35;27.19;102043.34;5076606;28;64766;-73
2023/03/01 00:52:44;;;;;;;;;3.25;3.25;;;;;22.35;26.94;102038.88;5072119;27;45538;-73
2023/03/01 00:55:10;;;;;;;;;5.75;3.75;;;;;22.33;27.17;102038.09;5074738;28;45766;-73
2023/03/01 00:57:35;;;;;;;;;5.00;4.75;;;;;22.34;27.43;102046.97;5050097;28;45525;-73
2023/03/01 01:00:01;;;;;;;;;6.75;3.50;;;;;22.36;27.00;102042.38;5059268;28;62681;-73
2023/03/01 01:02:26;;;;;;;;;5.75;4.25;;;;;22.31;27.04;102039.13;5070786;28;64317;-73
2023/03/01 01:04:52;;;;;;;;;7.00;4.50;;;;;22.37;26.73;102041.47;5068708;27;45473;-73
2023/03/01 01:07:19;;;;;;;;;5.75;3.75;;;;;22.34;26.85;102039.81;5069348;27;57551;-72
2023/03/01 01:09:45;;;;;;;;;5.00;3.50;;;;;22.32;27.18;102039.03;5075417;28;45718;-73
2023/03/01 01:12:10;;;;;;;;;4.00;4.00;;;;;22.34;27.24;102037.13;5072801;28;45301;-73
2023/03/01 01:14:36;;;;;;;;;3.00;3.00;;;;;22.35;27.24;102035.34;5071582;28;45470;-74
2023/03/01 01:17:01;;;;;;;;;4.00;4.00;;;;;22.35;26.78;102030.03;5089567;27;63054;-73
2023/03/01 01:19:27;;;;;;;;;5.00;5.00;;;;;22.34;26.96;102023.81;5077171;27;52225;-73
2023/03/01 01:21:52;;;;;;;;;5.00;4.25;;;;;22.35;27.13;102027.34;5093014;27;73189;-73
2023/03/01 01:24:18;;;;;;;;;4.75;4.00;;;;;22.35;26.79;102027.34;5074735;28;45367;-73
2023/03/01 01:26:44;;;;;;;;;4.00;4.00;;;;;22.36;27.07;102029.94;5067641;27;45415;-73
2023/03/01 01:29:10;;;;;;;;;4.00;3.75;;;;;22.34;26.61;102029.13;5070566;27;57617;-73
2023/03/01 01:31:36;;;;;;;;;5.50;3.00;;;;;22.35;26.97;102024.69;5087754;27;48368;-72
2023/03/01 01:34:05;;;;;;;;;5.50;4.25;;;;;22.32;27.02;102016.84;5055076;28;47068;-72
2023/03/01 01:36:31;;;;;;;;;5.25;4.00;;;;;22.33;27.33;102016.78;5080225;28;45259;-73
2023/03/01 01:38:56;;;;;;;;;3.00;3.00;;;;;22.35;27.25;102014.03;5061746;28;45247;-73
2023/03/01 01:41:22;;;;;;;;;3.50;2.25;;;;;22.36;26.95;102005.94;5074616;27;46035;-73
2023/03/01 01:44:09;;;;;;;;;4.50;4.50;;;;;22.36;27.19;102008.59;5076122;27;46724;-73
2023/03/01 01:46:37;;;;;;;;;5.50;4.50;;;;;22.36;27.24;102005.06;5071651;27;45513;-73
2023/03/01 01:49:19;;;;;;;;;4.25;3.00;;;;;22.34;27.30;102002.47;5062985;28;45537;-72
2023/03/01 01:51:48;;;;;;;;;4.00;4.00;;;;;22.36;26.78;102005.06;5071623;28;48133;-73
2023/03/01 01:54:24;;;;;;;;;4.00;3.25;;;;;22.32;26.75;101993.69;5073895;28;45478;-73
2023/03/01 01:56:57;;;;;;;;;3.75;3.00;;;;;22.35;27.16;102004.19;5056178;28;45284;-73
2023/03/01 01:59:24;;;;;;;;;4.25;4.00;;;;;22.34;26.86;101998.94;5076243;27;45540;-73
2023/03/01 02:01:51;;;;;;;;;4.50;3.25;;;;;22.35;27.08;102004.19;5074793;28;46047;-73
2023/03/01 02:04:17;;;;;;;;;7.25;4.00;;;;;22.34;26.91;101999.81;5060753;28;45812;-73
2023/03/01 02:06:52;;;;;;;;;5.75;3.75;;;;;22.37;27.30;101999.63;5071778;27;45437;-73
2023/03/01 02:09:19;;;;;;;;;4.25;3.25;;;;;22.39;26.95;102002.22;5079847;27;45257;-73
2023/03/01 02:11:44;;;;;;;;;5.50;5.00;;;;;22.36;27.07;101994.38;5079003;27;46531;-73
2023/03/01 02:14:09;;;;;;;;;4.00;4.00;;;;;22.37;26.94;101990.78;5070831;27;45591;-73
2023/03/01 02:16:35;;;;;;;;;3.50;3.50;;;;;22.40;26.90;101990.63;5078789;27;70513;-72
2023/03/01 02:19:00;;;;;;;;;4.50;4.50;;;;;22.42;26.64;101987.88;5077025;27;45384;-73
2023/03/01 02:21:44;;;;;;;;;4.00;4.00;;;;;22.40;26.62;101998.63;5073308;28;45533;-73
2023/03/01 02:24:40;;;;;;;;;5.00;4.00;;;;;22.41;27.21;101992.31;5076270;27;45795;-73
2023/03/01 02:27:06;;;;;;;;;4.25;4.00;;;;;22.40;26.87;101984.41;5078743;28;45445;-73
2023/03/01 02:29:31;;;;;;;;;4.00;4.00;;;;;22.40;26.84;101973.72;5081489;27;60006;-73
2023/03/01 02:32:00;;;;;;;;;3.00;3.00;;;;;22.41;26.94;101978.97;5075563;27;45537;-73
2023/03/01 02:34:26;;;;;;;;;5.00;5.00;;;;;22.37;26.90;101972.09;5078835;27;45785;-73
2023/03/01 02:37:02;;;;;;;;;5.50;4.00;;;;;22.40;27.28;101981.72;5062134;28;69411;-73
2023/03/01 02:39:41;;;;;;;;;5.00;5.00;;;;;22.39;26.96;101977.38;5077634;27;45330;-73
2023/03/01 02:42:11;;;;;;;;;6.00;4.00;;;;;22.43;26.65;101976.22;5054004;27;46303;-73
2023/03/01 02:44:36;;;;;;;;;3.00;3.00;;;;;22.41;26.77;101970.97;5074254;28;46239;-73
2023/03/01 02:47:03;;;;;;;;;7.00;4.50;;;;;22.43;26.80;101971.75;5064687;27;61153;-73
2023/03/01 02:49:31;;;;;;;;;4.75;4.00;;;;;22.42;27.17;101967.38;5075222;27;45452;-73
2023/03/01 02:52:21;;;;;;;;;5.25;4.00;;;;;22.43;26.70;101962.88;5076637;27;47499;-73
2023/03/01 02:55:02;;;;;;;;;5.00;5.00;;;;;22.41;27.01;101957.63;5080008;28;45532;-73
2023/03/01 02:57:29;;;;;;;;;5.75;3.75;;;;;22.42;27.13;101962.03;5052429;28;45455;-73
2023/03/01 02:59:57;;;;;;;;;6.00;5.00;;;;;22.41;26.90;101962.97;5065007;28;45270;-73
2023/03/01 03:02:37;;;;;;;;;5.00;4.00;;;;;22.41;26.63;101959.47;5073968;28;45531;-73
2023/03/01 03:05:03;;;;;;;;;3.00;3.00;;;;;22.42;27.20;101958.53;5080240;28;45365;-73
2023/03/01 03:07:28;;;;;;;;;4.00;3.25;;;;;22.40;26.93;101955.94;5068378;28;45395;-73
2023/03/01 03:09:54;;;;;;;;;3.00;3.00;;;;;22.37;27.15;101942.78;5072980;28;45329;-73
2023/03/01 03:12:19;;;;;;;;;6.50;4.00;;;;;22.40;27.36;101945.28;5070920;27;74388;-72
2023/03/01 03:14:44;;;;;;;;;3.00;3.00;;;;;22.41;27.02;101940.78;5069931;28;60345;-73
2023/03/01 03:17:10;;;;;;;;;2.00;2.00;;;;;22.42;27.08;101939.84;5064074;28;67744;-73
2023/03/01 03:19:35;;;;;;;;;3.00;3.00;;;;;22.35;27.07;101932.19;5050409;28;69724;-72
2023/03/01 03:22:01;;;;;;;;;2.50;2.50;;;;;22.37;26.86;101934.78;5077340;28;49344;-72
2023/03/01 03:24:37;;;;;;;;;4.75;3.25;;;;;22.37;27.10;101932.94;5065015;27;45667;-73
2023/03/01 03:27:06;;;;;;;;;3.50;3.50;;;;;22.39;26.85;101935.53;5071660;27;45725;-73
2023/03/01 03:29:32;;;;;;;;;6.50;4.25;;;;;22.42;26.90;101937.19;5072043;28;45363;-72
2023/03/01 03:31:58;;;;;;;;;5.25;5.00;;;;;22.41;26.73;101936.31;5095912;27;45515;-73
2023/03/01 03:34:23;;;;;;;;;4.75;4.00;;;;;22.40;26.81;101939.06;5076649;28;60545;-73
2023/03/01 03:36:59;;;;;;;;;4.25;3.50;;;;;22.42;27.14;101942.53;5072707;28;67647;-73
2023/03/01 03:39:26;;;;;;;;;5.00;3.00;;;;;22.42;26.79;101942.53;5059887;28;45504;-73
2023/03/01 03:41:51;;;;;;;;;3.75;3.75;;;;;22.43;27.00;101938.88;5075530;28;45335;-73
2023/03/01 03:44:16;;;;;;;;;4.75;4.75;;;;;22.43;26.87;101929.06;5077719;28;64055;-73
2023/03/01 03:46:42;;;;;;;;;4.00;4.00;;;;;22.45;27.15;101935.19;5054310;28;66666;-73
2023/03/01 03:49:07;;;;;;;;;5.00;5.00;;;;;22.41;26.85;101922.97;5068714;28;56343;-73
2023/03/01 03:51:33;;;;;;;;;5.75;4.00;;;;;22.46;26.86;101923.56;5076288;27;66862;-73
2023/03/01 03:53:58;;;;;;;;;4.25;4.25;;;;;22.46;27.14;101920.91;5051124;28;45372;-74
2023/03/01 03:56:25;;;;;;;;;4.50;4.00;;;;;22.45;26.90;101921.88;5070425;28;56055;-74
2023/03/01 03:58:52;;;;;;;;;3.25;3.25;;;;;22.47;27.08;101919.06;5076349;28;45493;-74
2023/03/01 04:01:17;;;;;;;;;6.00;4.25;;;;;22.43;26.87;101923.72;5059973;28;45831;-72
2023/03/01 04:03:46;;;;;;;;;5.00;5.00;;;;;22.41;26.93;101912.28;5071978;28;45686;-72
2023/03/01 04:06:12;;;;;;;;;5.00;4.00;;;;;22.47;26.95;101924.41;5079676;27;45360;-73
2023/03/01 04:08:37;;;;;;;;;3.75;3.75;;;;;22.44;27.07;101922.78;5060778;28;45461;-73
2023/03/01 04:11:25;;;;;;;;;4.00;4.00;;;;;22.46;27.15;101928.91;5074195;28;63239;-73
2023/03/01 04:13:49;;;;;;;;;6.00;4.75;;;;;22.46;26.75;101931.56;5072833;27;45307;-73
2023/03/01 04:16:15;;;;;;;;;7.75;6.50;;;;;22.46;26.73;101925.38;5076513;27;45450;-73
2023/03/01 04:18:40;;;;;;;;;4.75;4.00;;;;;22.45;27.04;101935.19;5075933;27;72150;-73
2023/03/01 04:21:05;;;;;;;;;5.25;5.25;;;;;22.47;26.90;101930.63;5072093;27;64163;-73
2023/03/01 04:23:30;;;;;;;;;5.25;4.75;;;;;22.43;27.18;101922.88;5072316;28;59323;-72
2023/03/01 04:25:57;;;;;;;;;4.00;3.25;;;;;22.44;27.21;101914.78;5067287;27;59586;-72
2023/03/01 04:28:24;;;;;;;;;6.00;6.00;;;;;22.46;27.05;101915.56;5069586;28;45294;-73
2023/03/01 04:30:50;;;;;;;;;5.00;4.00;;;;;22.45;27.08;101912.97;5058016;28;46174;-73
2023/03/01 04:33:15;;;;;;;;;7.00;5.00;;;;;22.44;27.09;101919.28;5074439;28;45732;-73
2023/03/01 04:35:41;;;;;;;;;4.75;4.00;;;;;22.46;27.08;101920.03;5050704;28;45236;-73
2023/03/01 04:38:06;;;;;;;;;4.00;3.00;;;;;22.45;27.22;101912.97;5065957;28;45227;-73
2023/03/01 04:40:32;;;;;;;;;3.00;3.00;;;;;22.47;26.97;101919.97;5071420;27;46611;-73
2023/03/01 04:42:57;;;;;;;;;3.00;3.00;;;;;22.47;27.36;101914.63;5093092;27;45915;-73
2023/03/01 04:45:23;;;;;;;;;5.00;3.25;;;;;22.46;27.16;101912.03;5074160;28;45432;-72
2023/03/01 04:47:48;;;;;;;;;3.50;3.00;;;;;22.43;27.41;101905.06;5080587;28;45629;-73
2023/03/01 04:50:16;;;;;;;;;4.00;4.00;;;;;22.45;27.22;101910.31;5072084;28;45974;-73
2023/03/01 04:52:45;;;;;;;;;4.00;4.00;;;;;22.42;27.05;101906.03;5069499;28;45422;-74
2023/03/01 04:55:11;;;;;;;;;4.75;4.75;;;;;22.44;27.04;101896.13;5068417;27;45208;-73
2023/03/01 04:57:36;;;;;;;;;4.00;4.00;;;;;22.46;26.89;101906.69;5065920;28;45764;-73
2023/03/01 05:00:19;;;;;;;;;5.00;5.00;;;;;22.44;26.68;101896.13;5077451;27;54019;-73
2023/03/01 05:02:52;;;;;;;;;5.00;5.00;;;;;22.44;27.27;101893.44;5061963;27;45426;-72
2023/03/01 05:05:18;;;;;;;;;3.75;3.75;;;;;22.46;27.07;101898.69;5053092;28;45603;-72
2023/03/01 05:07:44;;;;;;;;;6.50;4.75;;;;;22.48;27.19;101902.97;5074730;28;45335;-72
2023/03/01 05:10:09;;;;;;;;;6.00;5.25;;;;;22.49;27.02;101903.88;5071824;27;62548;-73
2023/03/01 05:12:37;;;;;;;;;5.00;3.25;;;;;22.46;27.21;101899.56;5075237;28;45483;-73
2023/03/01 05:15:06;;;;;;;;;5.50;4.00;;;;;22.49;26.53;101907.38;5074643;27;45448;-73
2023/03/01 05:17:32;;;;;;;;;3.00;3.00;;;;;22.49;27.09;101907.38;5072365;27;45600;-73
2023/03/01 05:19:59;;;;;;;;;8.50;6.00;;;;;22.49;26.87;101906.53;5069800;27;45509;-74
2023/03/01 05:22:24;;;;;;;;;7.00;6.25;;;;;22.47;27.18;101897.72;5088550;27;45961;-73
2023/03/01 05:24:50;;;;;;;;;4.50;4.50;;;;;22.49;26.91;101901.19;5079133;27;45422;-73
2023/03/01 05:27:15;;;;;;;;;4.00;4.00;;;;;22.48;26.58;101896.78;5078488;28;71780;-73
2023/03/01 05:29:41;;;;;;;;;6.00;4.00;;;;;22.48;26.93;101896.78;5074335;27;45348;-73
2023/03/01 05:32:06;;;;;;;;;4.50;3.50;;;;;22.49;26.77;101895.88;5076986;27;45465;-73
2023/03/01 05:34:34;;;;;;;;;5.50;5.00;;;;;22.49;26.47;101886.03;5063662;28;45823;-73
2023/03/01 05:36:59;;;;;;;;;5.00;4.00;;;;;22.47;26.77;101892.41;5051949;28;45605;-72
2023/03/01 05:39:26;;;;;;;;;4.25;4.25;;;;;22.48;27.15;101894.97;5061576;28;53951;-72
2023/03/01 05:41:55;;;;;;;;;6.00;5.00;;;;;22.48;26.73;101886.97;5077250;28;45976;-72
2023/03/01 05:44:21;;;;;;;;;5.00;4.00;;;;;22.49;26.59;101893.19;5073509;27;45508;-71
2023/03/01 05:46:47;;;;;;;;;5.00;5.00;;;;;22.49;26.96;101893.19;5064452;28;45490;-72
2023/03/01 05:49:14;;;;;;;;;6.00;4.75;;;;;22.46;27.22;101880.88;5080099;27;46346;-72
2023/03/01 05:51:41;;;;;;;;;4.25;4.25;;;;;22.49;26.75;101901.19;5068338;27;46357;-72
2023/03/01 05:54:07;;;;;;;;;4.00;4.00;;;;;22.48;27.18;101888.78;5057569;28;45372;-72
2023/03/01 05:56:34;;;;;;;;;4.75;4.00;;;;;22.50;27.05;101892.22;5058239;28;45638;-72
2023/03/01 05:58:59;;;;;;;;;6.50;3.00;;;;;22.47;27.29;101884.41;5070545;28;45383;-72
2023/03/01 06:01:25;;;;;;;;;4.25;2.50;;;;;22.48;27.17;101886.13;5070908;27;45334;-72
2023/03/01 06:03:50;;;;;;;;;5.00;4.00;;;;;22.42;27.10;101879.34;5057081;28;70279;-71
2023/03/01 06:06:16;;;;;;;;;5.50;5.25;;;;;22.48;26.97;101888.78;5072213;27;45363;-71
2023/03/01 06:08:41;;;;;;;;;6.00;4.75;;;;;22.45;26.78;101880.97;5075527;27;46029;-72
2023/03/01 06:11:07;;;;;;;;;6.00;5.50;;;;;22.46;26.84;101880.03;5063872;28;70396;-73
2023/03/01 06:13:32;;;;;;;;;5.25;5.25;;;;;22.49;27.30;101887.84;5072505;28;45347;-73
2023/03/01 06:15:58;;;;;;;;;5.50;4.75;;;;;22.47;27.05;101877.28;5074304;27;45463;-73
2023/03/01 06:18:23;;;;;;;;;4.00;4.00;;;;;22.49;27.26;101875.38;5077912;27;74721;-73
2023/03/01 06:20:55;;;;;;;;;4.25;4.25;;;;;22.50;27.37;101878.88;5074431;27;71475;-72
2023/03/01 06:23:21;;;;;;;;;3.75;3.75;;;;;22.49;26.97;101866.53;5076961;28;45500;-72
2023/03/01 06:25:46;;;;;;;;;7.25;6.00;;;;;22.51;27.04;101864.63;5078621;27;45508;-72
2023/03/01 06:28:11;;;;;;;;;11.50;11.00;;;;;22.51;26.28;101878.81;5078221;27;60685;-70
2023/03/01 06:30:37;;;;;;;;;17.75;15.75;;;;;22.48;25.63;101865.63;5071072;27;53402;-67
2023/03/01 06:33:02;;;;;;;;;18.25;17.00;;;;;22.40;25.45;101869.72;5074508;28;45205;-70
2023/03/01 06:35:32;;;;;;;;;18.25;18.00;;;;;22.30;25.23;101872.06;5076728;27;45282;-71
2023/03/01 06:37:59;;;;;;;;;12.75;12.00;;;;;22.19;25.77;101867.34;5072838;27;45527;-71
2023/03/01 06:40:25;;;;;;;;;14.50;10.00;;;;;22.16;25.66;101865.69;5061630;28;46003;-67
2023/03/01 06:42:52;;;;;;;;;12.75;11.25;;;;;22.14;25.78;101856.06;5071411;28;45560;-71
2023/03/01 06:45:18;;;;;;;;;10.25;10.25;;;;;22.15;26.13;101863.09;5071629;27;45245;-67
2023/03/01 06:47:44;;;;;;;;;10.25;9.00;;;;;22.18;26.28;101860.25;5071482;27;45447;-67
2023/03/01 06:50:10;;;;;;;;;13.00;9.50;;;;;22.19;26.04;101846.00;5077903;27;65396;-67
2023/03/01 06:52:35;;;;;;;;;12.00;10.75;;;;;22.20;26.32;101855.69;5070433;27;45837;-66
2023/03/01 06:55:01;;;;;;;;;11.00;10.00;;;;;22.23;26.06;101857.34;5060445;28;45778;-66
2023/03/01 06:57:27;;;;;;;;;10.25;8.75;;;;;22.25;26.33;101850.97;5049938;28;47127;-66
2023/03/01 06:59:52;;;;;;;;;13.00;11.00;;;;;22.26;25.96;101855.34;5073330;27;45422;-66
2023/03/01 07:02:18;;;;;;;;;11.00;10.75;;;;;22.26;26.40;101849.19;5078480;27;64283;-67
2023/03/01 07:04:43;;;;;;;;;12.50;9.50;;;;;22.28;26.42;101848.16;5074168;28;45386;-67
2023/03/01 07:07:09;;;;;;;;;11.00;11.00;;;;;22.29;26.01;101857.00;5070600;27;64698;-67
2023/03/01 07:09:34;;;;;;;;;11.75;10.00;;;;;22.29;26.42;101849.00;5072615;27;45465;-67
2023/03/01 07:12:00;;;;;;;;;12.25;9.25;;;;;22.30;25.57;101848.06;5076699;27;55846;-71
2023/03/01 07:14:25;;;;;;;;;12.50;12.50;;;;;22.24;25.48;101840.38;5061526;28;45553;-68
2023/03/01 07:16:54;;;;;;;;;12.75;10.75;;;;;22.24;25.68;101843.03;5080319;27;45197;-68
2023/03/01 07:19:20;;;;;;;;;12.00;10.00;;;;;22.23;25.65;101844.00;5075947;28;45301;-68
2023/03/01 07:21:45;;;;;;;;;9.25;9.00;;;;;22.23;25.73;101850.19;5050318;28;45470;-69
2023/03/01 07:24:10;;;;;;;;;9.00;9.00;;;;;22.24;25.83;101853.72;5065478;28;65452;-70
2023/03/01 07:26:36;;;;;;;;;9.25;8.50;;;;;22.23;26.08;101841.34;5075267;28;45845;-68
2023/03/01 07:29:03;;;;;;;;;10.25;8.25;;;;;22.22;26.19;101842.28;5067406;27;45294;-68
2023/03/01 07:31:29;;;;;;;;;7.75;7.00;;;;;22.23;26.27;101852.88;5060063;28;45367;-70
2023/03/01 07:33:55;;;;;;;;;11.25;8.75;;;;;22.27;26.42;101849.09;5074801;28;45378;-67
2023/03/01 07:36:21;;;;;;;;;10.25;9.50;;;;;22.27;25.94;101850.91;5068919;28;45376;-68
2023/03/01 07:38:47;;;;;;;;;10.50;7.00;;;;;22.28;26.06;101848.16;5075910;28;45483;-69
2023/03/01 07:41:12;;;;;;;;;8.75;6.75;;;;;22.26;26.09;101850.03;5071011;27;45275;-68
2023/03/01 07:43:38;;;;;;;;;9.25;9.25;;;;;22.26;26.60;101842.03;5074118;27;45211;-67
2023/03/01 07:46:04;;;;;;;;;11.25;7.00;;;;;22.28;26.15;101841.97;5072082;27;61024;-69
2023/03/01 07:48:30;;;;;;;;;9.25;8.00;;;;;22.28;26.68;101832.16;5056084;28;45435;-67
2023/03/01 07:51:04;;;;;;;;;11.75;8.00;;;;;22.29;26.46;101847.22;5043475;28;45507;-69
2023/03/01 07:53:31;;;;;;;;;11.50;9.00;;;;;22.29;26.76;101843.66;5077091;28;45634;-72
2023/03/01 07:56:10;;;;;;;;;7.75;7.75;;;;;22.31;26.97;101831.09;5062274;28;47045;-72
2023/03/01 07:58:37;;;;;;;;;11.00;9.00;;;;;22.32;26.79;101832.84;5058819;28;45844;-70
2023/03/01 08:01:07;;;;;;;;;9.75;7.50;;;;;22.37;26.49;101834.28;5079626;28;45288;-70
2023/03/01 08:03:33;;;;;;;;;9.25;8.00;;;;;22.36;26.50;101843.25;5069874;27;45674;-73
2023/03/01 08:06:00;;;;;;;;;9.75;8.00;;;;;22.40;26.62;101851.03;5065039;28;46938;-76
2023/03/01 08:08:25;;;;;;;;;9.25;8.00;;;;;22.42;26.24;101844.69;5069383;27;45184;-71
2023/03/01 08:10:51;;;;;;;;;9.75;9.25;;;;;22.44;26.61;101844.59;5077654;27;45335;-78
2023/03/01 08:13:16;;;;;;;;;6.75;6.00;;;;;22.46;26.97;101856.88;5062134;28;64178;-73
2023/03/01 08:15:41;;;;;;;;;8.75;6.25;;;;;22.48;26.85;101852.31;5064803;27;63285;-69
2023/03/01 08:18:07;;;;;;;;;8.75;8.25;;;;;22.50;26.61;101847.72;5071262;27;61994;-69
2023/03/01 08:20:32;;;;;;;;;7.25;6.00;;;;;22.55;27.00;101848.31;5064793;28;45410;-72
2023/03/01 08:22:57;;;;;;;;;7.75;4.25;;;;;22.55;26.51;101845.66;5078027;27;45158;-71
2023/03/01 08:25:23;;;;;;;;;8.00;8.00;;;;;22.56;26.47;101847.38;5079271;28;45724;-70
2023/03/01 08:27:48;;;;;;;;;10.25;6.75;;;;;22.55;26.77;101839.47;5078165;28;66620;-71
2023/03/01 08:30:14;;;;;;;;;8.50;7.00;;;;;22.61;26.93;101846.22;5066046;27;67078;-71
2023/03/01 08:32:39;;;;;;;;;6.75;6.00;;;;;22.62;26.58;101835.47;5075268;28;45394;-68
2023/03/01 08:35:05;;;;;;;;;7.50;6.25;;;;;22.64;26.59;101832.72;5074891;28;46306;-68
2023/03/01 08:37:33;;;;;;;;;10.25;7.75;;;;;22.65;26.74;101835.28;5074714;28;45782;-67
2023/03/01 08:39:59;;;;;;;;;7.75;7.25;;;;;22.67;26.54;101833.38;5059137;28;45455;-76
2023/03/01 08:42:24;;;;;;;;;9.50;8.00;;;;;22.70;26.37;101835.00;5060190;28;45320;-69
2023/03/01 08:44:49;;;;;;;;;8.25;8.25;;;;;22.70;26.96;101829.66;5075050;27;69273;-73
2023/03/01 08:47:15;;;;;;;;;8.75;7.00;;;;;22.69;26.97;101823.47;5067648;28;68683;-75
2023/03/01 08:49:40;;;;;;;;;9.50;8.75;;;;;22.68;26.73;101816.44;5073083;28;45468;-73
2023/03/01 08:52:05;;;;;;;;;6.75;6.50;;;;;22.69;27.00;101815.47;5071589;28;54686;-71
2023/03/01 08:54:31;;;;;;;;;8.50;7.75;;;;;22.75;26.67;101817.78;5074224;28;52352;-71
2023/03/01 08:56:58;;;;;;;;;8.00;7.50;;;;;22.78;26.99;101823.88;5076717;27;61169;-70
2023/03/01 08:59:25;;;;;;;;;10.25;8.25;;;;;22.76;26.81;101821.28;5075503;27;45222;-70
2023/03/01 09:01:50;;;;;;;;;8.00;6.25;;;;;22.73;26.67;101808.13;5076413;28;45503;-70
2023/03/01 09:04:16;;;;;;;;;8.50;7.75;;;;;22.77;26.35;101807.00;5075390;27;45512;-71
2023/03/01 09:06:42;;;;;;;;;7.00;6.00;;;;;22.78;26.67;101802.53;5069676;27;45640;-71
2023/03/01 09:09:14;;;;;;;;;10.50;7.00;;;;;22.83;26.39;101800.44;5073766;27;45470;-71
2023/03/01 09:11:40;;;;;;;;;5.00;5.00;;;;;22.82;26.32;101798.69;5077990;27;45216;-71
2023/03/01 09:14:05;;;;;;;;;8.00;6.00;;;;;22.85;26.38;101802.03;5056035;28;74860;-72
2023/03/01 09:16:35;;;;;;;;;7.00;6.00;;;;;22.86;26.78;101797.53;5076238;27;45540;-74
2023/03/01 09:19:01;;;;;;;;;6.75;5.00;;;;;22.89;26.80;101792.03;5073318;27;45449;-71
2023/03/01 09:21:26;;;;;;;;;8.75;6.75;;;;;22.87;26.15;101778.78;5059139;28;45552;-71
2023/03/01 09:23:51;;;;;;;;;9.25;7.00;;;;;22.91;26.44;101779.44;5070687;27;74617;-72
2023/03/01 09:26:21;;;;;;;;;12.00;8.00;;;;;22.94;26.85;101779.25;5059415;28;45284;-72
2023/03/01 09:28:46;;;;;;;;;7.25;6.00;;;;;22.95;26.37;101778.31;5074926;28;45335;-72
2023/03/01 09:31:12;;;;;;;;;7.25;5.00;;;;;22.97;26.61;101778.22;5059835;28;45525;-80
2023/03/01 09:33:39;;;;;;;;;8.50;6.75;;;;;22.99;26.43;101773.63;5075795;28;45536;-74
2023/03/01 09:36:07;;;;;;;;;7.00;7.00;;;;;22.94;26.19;101763.25;5075867;27;45506;-75
2023/03/01 09:38:32;;;;;;;;;7.75;6.50;;;;;22.98;26.62;101772.75;5087990;27;45173;-77
2023/03/01 09:40:58;;;;;;;;;5.00;5.00;;;;;;;;5077803;27;51094;-72
2023/03/01 09:43:30;;;;;;;;;7.00;6.50;;;;;23.05;26.39;101760.78;5072760;28;45466;-72
2023/03/01 09:45:59;;;;;;;;;7.75;5.00;;;;;23.05;26.56;101766.09;5075553;28;45323;-75
2023/03/01 09:48:27;;;;;;;;;9.75;6.25;;;;;23.02;26.83;101752.06;5071597;28;45442;-78
2023/03/01 09:50:52;;;;;;;;;5.00;5.00;;;;;23.09;26.73;101756.97;5074840;28;45296;-82
2023/03/01 09:53:21;;;;;;;;;4.50;4.50;;;;;23.12;26.87;101758.56;5073585;28;46469;-76
2023/03/01 09:55:55;;;;;;;;;7.00;6.00;;;;;23.13;26.65;101758.47;5058290;28;45889;-79
2023/03/01 09:58:43;;;;;;;;;7.00;6.00;;;;;23.15;26.86;101757.53;5060375;28;45406;-76
2023/03/01 10:01:23;;;;;;;;;7.25;7.25;;;;;23.16;26.56;101762.78;5077445;27;45303;-72
2023/03/01 10:04:37;;;;;;;;;7.50;7.00;;;;;23.18;27.04;101750.19;5081227;27;45477;-73
2023/03/01 10:07:13;;;;;;;;;4.50;4.25;;;;;23.19;26.57;101741.19;5069196;28;45473;-73
2023/03/01 10:09:43;;;;;;;;;7.00;7.00;;;;;23.12;26.89;101731.88;5077608;27;45415;-73
2023/03/01 10:12:12;;;;;;;;;6.25;5.75;;;;;23.21;26.70;101749.97;5078494;28;45470;-74
2023/03/01 10:14:54;;;;;;;;;5.75;5.75;;;;;23.21;26.82;101746.44;5076796;28;45445;-77
2023/03/01 10:17:19;;;;;;;;;6.25;5.00;;;;;23.24;26.53;101739.09;5071631;28;45726;-73
2023/03/01 10:19:46;;;;;;;;;5.25;5.00;;;;;23.25;26.68;101735.47;5070222;27;45416;-73
2023/03/01 10:22:29;;;;;;;;;6.25;5.00;;;;;23.24;26.92;101730.22;5058104;27;45445;-73
2023/03/01 10:24:58;;;;;;;;;6.25;5.50;;;;;23.27;26.36;101720.22;5079459;27;45483;-74
2023/03/01 10:27:40;;;;;;;;;7.00;6.75;;;;;23.25;26.39;101723.94;5063144;28;45843;-73
2023/03/01 10:30:27;;;;;;;;;6.50;5.25;;;;;23.28;26.88;101710.38;5073585;28;45436;-76
2023/03/01 10:32:53;;;;;;;;;6.00;6.00;;;;;23.30;26.76;101716.47;5080036;28;45469;-74
2023/03/01 10:35:24;;;;;;;;;8.50;5.75;;;;;23.29;26.39;101723.63;5075104;27;45561;-73
2023/03/01 10:38:06;;;;;;;;;6.00;4.75;;;;;23.28;26.86;101715.72;5063607;28;45763;-71
2023/03/01 10:40:32;;;;;;;;;5.00;5.00;;;;;23.29;26.68;101728.13;5074396;28;45440;-71
2023/03/01 10:43:01;;;;;;;;;5.50;5.50;;;;;23.26;27.06;101718.47;5075939;27;45410;-74
2023/03/01 10:45:29;;;;;;;;;9.50;6.00;;;;;23.29;27.16;101736.97;5057973;28;47571;-75
2023/03/01 10:48:06;;;;;;;;;5.50;5.25;;;;;23.29;27.24;101718.28;5067413;27;45932;-71
2023/03/01 10:50:31;;;;;;;;;6.75;5.25;;;;;23.29;27.09;101723.63;5069521;27;45235;-73
2023/03/01 10:53:04;;;;;;;;;11.25;6.00;;;;;23.27;27.31;101714.88;5075855;27;45549;-83
2023/03/01 10:55:35;;;;;;;;;6.00;6.00;;;;;23.13;27.52;101690.88;5061857;28;47208;-74
2023/03/01 10:58:19;;;;;;;;;4.75;4.75;;;;;23.22;27.42;101708.97;5076250;27;45438;-80
2023/03/01 11:00:53;;;;;;;;;5.00;5.00;;;;;23.30;27.15;101716.47;5076646;27;45283;-73
2023/03/01 11:03:37;;;;;;;;;7.00;5.25;;;;;23.28;27.46;101705.03;5070393;28;45565;-75
2023/03/01 11:06:21;;;;;;;;;7.00;5.50;;;;;23.24;27.08;101699.03;5074646;28;45490;-76
2023/03/01 11:08:49;;;;;;;;;6.00;5.00;;;;;23.27;27.62;101704.19;5067569;27;45462;-75
2023/03/01 11:11:26;;;;;;;;;7.50;6.00;;;;;23.30;27.57;101703.09;5066043;27;45209;-74
2023/03/01 11:13:58;;;;;;;;;6.00;3.00;;;;;23.31;27.67;101711.03;5061964;28;45503;-76
2023/03/01 11:16:25;;;;;;;;;9.25;5.25;;;;;23.31;27.32;101703.00;5069100;27;46246;-75
2023/03/01 11:19:09;;;;;;;;;9.50;6.00;;;;;23.32;27.38;101687.88;5075120;27;45551;-73
2023/03/01 11:21:37;;;;;;;;;6.75;6.75;;;;;23.34;27.54;101687.75;5079145;27;45323;-72
2023/03/01 11:24:06;;;;;;;;;8.00;6.00;;;;;23.26;27.98;101675.75;5076037;28;45603;-81
2023/03/01 11:26:36;;;;;;;;;7.00;5.75;;;;;23.31;27.66;101675.47;5076270;28;45474;-83
2023/03/01 11:29:04;;;;;;;;;5.75;5.25;;;;;23.33;27.49;101680.69;5070558;27;45996;-78